createdAt,value
2023-03-05T00:01:24.843Z,91.07
2023-03-05T00:03:53.208Z,90.84
2023-03-05T00:06:22.127Z,91.46
2023-03-05T00:08:49.971Z,90.97
2023-03-05T00:11:17.260Z,90.91
2023-03-05T00:13:44.184Z,91.09
2023-03-05T00:16:14.254Z,91.37
2023-03-05T00:18:41.874Z,92.00
2023-03-05T00:21:30.668Z,91.96
2023-03-05T00:24:00.983Z,91.75
2023-03-05T00:26:29.270Z,91.20
2023-03-05T00:28:57.538Z,91.40
2023-03-05T00:31:30.312Z,91.60
2023-03-05T00:34:03.412Z,91.28
2023-03-05T00:36:31.247Z,90.67
2023-03-05T00:38:58.595Z,90.15
2023-03-05T00:41:25.696Z,90.88
2023-03-05T00:43:52.602Z,90.38
2023-03-05T00:46:19.672Z,90.47
2023-03-05T00:48:46.472Z,90.47
2023-03-05T00:51:13.528Z,90.73
2023-03-05T00:53:40.291Z,90.32
2023-03-05T00:56:07.487Z,90.24
2023-03-05T00:58:34.319Z,90.64
2023-03-05T01:01:02.807Z,90.66
2023-03-05T01:03:30.831Z,91.06
2023-03-05T01:05:58.543Z,90.85
2023-03-05T01:08:26.549Z,90.34
2023-03-05T01:10:53.605Z,89.97
2023-03-05T01:13:20.765Z,90.51
2023-03-05T01:15:48.784Z,90.28
2023-03-05T01:18:15.624Z,89.34
2023-03-05T01:20:43.359Z,89.00
2023-03-05T01:23:10.502Z,88.96
2023-03-05T01:25:37.809Z,88.78
2023-03-05T01:28:05.101Z,88.40
2023-03-05T01:30:32.368Z,88.22
2023-03-05T01:32:59.507Z,88.69
2023-03-05T01:35:27.158Z,88.02
2023-03-05T01:37:54.328Z,88.19
2023-03-05T01:40:26.296Z,87.49
2023-03-05T01:43:06.659Z,87.53
2023-03-05T01:45:33.805Z,88.55
2023-03-05T01:48:00.601Z,88.22
2023-03-05T01:50:27.963Z,87.82
2023-03-05T01:53:06.504Z,87.90
2023-03-05T01:55:37.177Z,87.45
2023-03-05T01:58:08.803Z,87.75
2023-03-05T02:00:50.944Z,87.23
2023-03-05T02:03:18.437Z,87.11
2023-03-05T02:05:45.472Z,87.50
2023-03-05T02:08:18.393Z,87.29
2023-03-05T02:10:51.724Z,87.83
2023-03-05T02:13:22.687Z,88.28
2023-03-05T02:15:50.244Z,88.11
2023-03-05T02:18:18.966Z,87.97
2023-03-05T02:20:54.066Z,87.88
2023-03-05T02:23:22.640Z,88.24
2023-03-05T02:25:50.377Z,88.12
2023-03-05T02:28:46.390Z,88.52
2023-03-05T02:31:21.964Z,88.98
2023-03-05T02:33:49.662Z,88.42
2023-03-05T02:36:18.170Z,89.05
2023-03-05T02:38:45.684Z,88.72
2023-03-05T02:41:14.130Z,89.24
2023-03-05T02:43:41.354Z,89.05
2023-03-05T02:46:09.319Z,89.07
2023-03-05T02:48:36.123Z,89.44
2023-03-05T02:51:05.531Z,89.63
2023-03-05T02:53:32.324Z,89.49
2023-03-05T02:55:59.391Z,89.56
2023-03-05T02:58:26.273Z,90.14
2023-03-05T03:00:53.340Z,90.25
2023-03-05T03:03:20.246Z,90.39
2023-03-05T03:05:47.276Z,89.75
2023-03-05T03:08:15.164Z,90.29
2023-03-05T03:10:42.209Z,90.47
2023-03-05T03:13:08.927Z,90.12
2023-03-05T03:15:37.949Z,90.56
2023-03-05T03:18:04.858Z,90.38
2023-03-05T03:20:32.767Z,90.16
2023-03-05T03:22:59.549Z,89.81
2023-03-05T03:25:26.658Z,89.86
2023-03-05T03:27:53.443Z,90.08
2023-03-05T03:30:20.553Z,90.28
2023-03-05T03:32:47.395Z,90.09
2023-03-05T03:35:14.543Z,89.89
2023-03-05T03:37:41.455Z,89.40
2023-03-05T03:40:09.625Z,89.47
2023-03-05T03:42:36.371Z,89.96
2023-03-05T03:45:04.284Z,89.76
2023-03-05T03:47:31.249Z,89.48
2023-03-05T03:50:01.643Z,89.41
2023-03-05T03:52:28.430Z,89.30
2023-03-05T03:55:01.312Z,89.64
2023-03-05T03:57:29.775Z,89.53
2023-03-05T03:59:56.960Z,90.07
2023-03-05T04:02:23.876Z,90.08
2023-03-05T04:04:51.065Z,89.87
2023-03-05T04:07:18.112Z,89.78
2023-03-05T04:09:45.478Z,89.92
2023-03-05T04:12:17.592Z,90.19
2023-03-05T04:14:46.225Z,89.71
2023-03-05T04:17:13.203Z,90.03
2023-03-05T04:19:40.701Z,90.15
2023-03-05T04:22:11.996Z,90.26
2023-03-05T04:24:39.319Z,90.47
2023-03-05T04:27:06.428Z,90.64
2023-03-05T04:29:34.592Z,90.66
2023-03-05T04:32:01.505Z,90.77
2023-03-05T04:34:28.839Z,91.20
2023-03-05T04:36:55.865Z,91.45
2023-03-05T04:39:22.947Z,91.39
2023-03-05T04:41:49.779Z,91.50
2023-03-05T04:44:17.946Z,91.52
2023-03-05T04:46:44.939Z,91.58
2023-03-05T04:49:12.093Z,91.46
2023-03-05T04:51:38.888Z,91.47
2023-03-05T04:54:06.034Z,91.14
2023-03-05T04:56:32.944Z,91.47
2023-03-05T04:59:00.656Z,91.81
2023-03-05T05:01:27.467Z,91.58
2023-03-05T05:03:54.605Z,91.17
2023-03-05T05:06:21.377Z,91.34
2023-03-05T05:08:48.451Z,91.09
2023-03-05T05:11:15.360Z,91.54
2023-03-05T05:13:42.462Z,91.66
2023-03-05T05:16:09.477Z,91.16
2023-03-05T05:18:36.645Z,91.10
2023-03-05T05:21:08.198Z,91.22
2023-03-05T05:23:36.123Z,90.73
2023-03-05T05:26:04.972Z,90.68
2023-03-05T05:28:32.445Z,89.91
2023-03-05T05:30:59.507Z,90.74
2023-03-05T05:33:27.060Z,90.44
2023-03-05T05:35:53.935Z,89.89
2023-03-05T05:38:21.058Z,90.10
2023-03-05T05:40:47.815Z,90.01
2023-03-05T05:43:15.004Z,90.39
2023-03-05T05:45:41.926Z,90.23
2023-03-05T05:48:09.042Z,89.94
2023-03-05T05:50:37.910Z,89.65
2023-03-05T05:53:05.191Z,89.88
2023-03-05T05:55:31.962Z,90.15
2023-03-05T05:57:58.997Z,90.42
2023-03-05T06:00:25.753Z,89.69
2023-03-05T06:02:52.841Z,89.58
2023-03-05T06:05:19.875Z,90.05
2023-03-05T06:07:46.917Z,89.32
2023-03-05T06:10:13.864Z,89.72
2023-03-05T06:12:40.944Z,89.69
2023-03-05T06:15:08.206Z,89.45
2023-03-05T06:17:35.478Z,88.61
2023-03-05T06:20:02.505Z,88.45
2023-03-05T06:22:29.602Z,88.31
2023-03-05T06:24:56.357Z,88.06
2023-03-05T06:27:23.433Z,88.05
2023-03-05T06:29:53.300Z,87.68
2023-03-05T06:32:21.133Z,87.69
2023-03-05T06:34:48.353Z,86.84
2023-03-05T06:37:15.506Z,86.51
2023-03-05T06:39:42.306Z,86.60
2023-03-05T06:42:10.137Z,86.36
2023-03-05T06:44:41.037Z,86.53
2023-03-05T06:47:10.541Z,86.43
2023-03-05T06:49:38.944Z,85.96
2023-03-05T06:52:07.414Z,85.97
2023-03-05T06:54:34.418Z,86.36
2023-03-05T06:57:01.622Z,85.52
2023-03-05T06:59:28.545Z,86.20
2023-03-05T07:01:55.649Z,85.75
2023-03-05T07:04:24.240Z,86.06
2023-03-05T07:06:51.490Z,86.23
2023-03-05T07:09:18.265Z,86.10
2023-03-05T07:11:45.341Z,86.54
2023-03-05T07:14:12.375Z,85.70
2023-03-05T07:16:39.522Z,85.37
2023-03-05T07:19:07.529Z,86.10
2023-03-05T07:21:36.970Z,85.25
2023-03-05T07:24:06.424Z,84.84
2023-03-05T07:26:33.629Z,84.88
2023-03-05T07:29:01.661Z,84.80
2023-03-05T07:31:31.745Z,85.23
2023-03-05T07:34:00.543Z,85.63
2023-03-05T07:36:28.058Z,85.01
2023-03-05T07:38:54.879Z,84.88
2023-03-05T07:41:23.600Z,85.26
2023-03-05T07:43:53.221Z,84.89
2023-03-05T07:46:23.021Z,84.25
2023-03-05T07:48:50.034Z,84.02
2023-03-05T07:51:19.939Z,83.79
2023-03-05T07:53:49.206Z,85.11
2023-03-05T07:56:45.659Z,84.52
2023-03-05T07:59:13.561Z,85.21
2023-03-05T08:01:41.148Z,85.19
2023-03-05T08:04:08.731Z,84.92
2023-03-05T08:06:38.597Z,84.79
2023-03-05T08:09:05.551Z,84.16
2023-03-05T08:11:32.648Z,84.64
2023-03-05T08:14:00.498Z,84.53
2023-03-05T08:16:27.722Z,85.42
2023-03-05T08:18:57.053Z,84.96
2023-03-05T08:21:35.587Z,84.42
2023-03-05T08:24:05.371Z,83.60
2023-03-05T08:26:34.954Z,83.73
2023-03-05T08:29:03.227Z,84.34
2023-03-05T08:31:30.811Z,83.09
2023-03-05T08:33:59.100Z,83.59
2023-03-05T08:36:26.947Z,83.86
2023-03-05T08:38:53.834Z,83.88
2023-03-05T08:41:20.936Z,83.13
2023-03-05T08:43:51.015Z,82.00
2023-03-05T08:46:18.379Z,82.70
2023-03-05T08:48:45.221Z,82.31
2023-03-05T08:51:14.886Z,81.96
2023-03-05T08:53:44.199Z,81.12
2023-03-05T08:56:11.631Z,81.37
2023-03-05T08:58:38.745Z,82.15
2023-03-05T09:01:06.237Z,81.62
2023-03-05T09:03:32.994Z,81.09
2023-03-05T09:06:05.440Z,80.29
2023-03-05T09:08:32.360Z,80.14
2023-03-05T09:11:05.932Z,80.79
2023-03-05T09:13:33.618Z,79.55
2023-03-05T09:16:04.041Z,78.98
2023-03-05T09:18:31.610Z,79.26
2023-03-05T09:20:59.426Z,77.92
2023-03-05T09:23:26.222Z,77.32
2023-03-05T09:25:53.358Z,76.33
2023-03-05T09:28:20.113Z,76.59
2023-03-05T09:30:47.572Z,76.30
2023-03-05T09:33:15.604Z,77.48
2023-03-05T09:35:42.968Z,77.63
2023-03-05T09:38:09.905Z,77.59
2023-03-05T09:40:42.304Z,77.54
2023-03-05T09:43:17.485Z,75.90
2023-03-05T09:46:07.367Z,76.70
2023-03-05T09:48:59.872Z,76.53
2023-03-05T09:51:35.077Z,76.19
2023-03-05T09:54:10.909Z,76.12
2023-03-05T09:56:47.509Z,75.97
2023-03-05T09:59:23.376Z,75.72
2023-03-05T10:01:52.945Z,75.93
2023-03-05T10:04:28.731Z,76.26
2023-03-05T10:07:08.940Z,77.26
2023-03-05T10:10:15.729Z,77.41
2023-03-05T10:12:44.279Z,78.12
2023-03-05T10:15:39.782Z,76.81
2023-03-05T10:18:25.095Z,77.25
2023-03-05T10:20:59.290Z,75.98
2023-03-05T10:23:44.930Z,75.60
2023-03-05T10:26:17.335Z,74.30
2023-03-05T10:29:04.997Z,74.50
2023-03-05T10:31:40.608Z,72.50
2023-03-05T10:34:41.519Z,72.95
2023-03-05T10:37:44.643Z,73.29
2023-03-05T10:40:22.092Z,73.77
2023-03-05T10:43:10.358Z,73.27
2023-03-05T10:45:43.508Z,71.75
2023-03-05T10:48:12.930Z,71.01
2023-03-05T10:50:48.569Z,71.06
2023-03-05T10:53:27.914Z,71.70
2023-03-05T10:55:56.654Z,71.21
2023-03-05T10:58:25.198Z,71.58
2023-03-05T11:01:24.359Z,72.15
2023-03-05T11:03:51.183Z,72.48
2023-03-05T11:06:30.536Z,71.98
2023-03-05T11:09:19.237Z,71.54
2023-03-05T11:12:08.595Z,71.23
2023-03-05T11:14:39.148Z,71.73
2023-03-05T11:17:44.922Z,71.79
2023-03-05T11:20:20.628Z,70.84
2023-03-05T11:23:13.870Z,72.18
2023-03-05T11:26:01.954Z,71.42
2023-03-05T11:28:35.891Z,71.51
2023-03-05T11:31:18.316Z,72.03
2023-03-05T11:34:03.417Z,71.45
2023-03-05T11:36:33.424Z,71.44
2023-03-05T11:39:06.526Z,69.25
2023-03-05T11:41:33.266Z,67.83
2023-03-05T11:44:03.833Z,67.78
2023-03-05T11:46:47.952Z,67.02
2023-03-05T11:49:20.690Z,67.47
2023-03-05T11:52:08.142Z,68.78
2023-03-05T11:54:54.934Z,69.79
2023-03-05T11:57:24.202Z,69.86
2023-03-05T11:59:55.024Z,68.88
2023-03-05T12:02:27.677Z,68.29
2023-03-05T12:04:56.334Z,68.17
2023-03-05T12:07:34.929Z,67.27
2023-03-05T12:10:02.785Z,67.11
2023-03-05T12:12:48.735Z,67.79
2023-03-05T12:15:18.695Z,67.56
2023-03-05T12:18:23.166Z,68.38
2023-03-05T12:20:58.677Z,67.35
2023-03-05T12:23:28.007Z,66.46
2023-03-05T12:26:00.141Z,65.12
2023-03-05T12:28:36.128Z,64.52
2023-03-05T12:31:44.261Z,65.21
2023-03-05T12:34:45.841Z,63.99
2023-03-05T12:37:33.083Z,63.10
2023-03-05T12:40:08.567Z,60.55
2023-03-05T12:42:58.869Z,54.12
2023-03-05T12:45:34.090Z,55.08
2023-03-05T12:48:01.072Z,56.00
2023-03-05T12:50:27.774Z,57.02
2023-03-05T12:52:58.285Z,57.09
2023-03-05T12:55:34.161Z,55.89
2023-03-05T12:58:07.275Z,57.44
2023-03-05T13:00:43.246Z,56.76
2023-03-05T13:03:18.129Z,58.20
2023-03-05T13:05:51.468Z,57.29
2023-03-05T13:08:21.165Z,57.30
2023-03-05T13:10:58.968Z,57.20
2023-03-05T13:13:29.376Z,57.51
2023-03-05T13:15:57.334Z,58.44
2023-03-05T13:18:30.157Z,58.30
2023-03-05T13:21:06.184Z,59.12
2023-03-05T13:23:35.066Z,59.11
2023-03-05T13:26:15.214Z,62.33
2023-03-05T13:28:44.963Z,60.37
2023-03-05T13:31:18.560Z,60.41
2023-03-05T13:33:55.863Z,61.76
2023-03-05T13:36:25.064Z,63.94
2023-03-05T13:38:53.355Z,62.99
2023-03-05T13:41:24.848Z,63.56
2023-03-05T13:44:00.645Z,63.57
2023-03-05T13:46:29.418Z,63.03
2023-03-05T13:48:57.637Z,63.59
2023-03-05T13:51:40.324Z,63.58
2023-03-05T13:54:10.271Z,64.18
2023-03-05T13:56:37.021Z,63.94
2023-03-05T13:59:05.532Z,63.87
2023-03-05T14:01:36.878Z,63.96
2023-03-05T14:04:12.782Z,64.74
2023-03-05T14:06:46.759Z,63.69
2023-03-05T14:09:26.067Z,63.15
2023-03-05T14:11:54.000Z,63.26
2023-03-05T14:14:23.299Z,63.49
2023-03-05T14:16:50.354Z,64.01
2023-03-05T14:19:34.802Z,64.33
2023-03-05T14:22:01.962Z,64.47
2023-03-05T14:24:31.303Z,64.78
2023-03-05T14:27:13.333Z,64.44
2023-03-05T14:29:46.607Z,64.68
2023-03-05T14:32:28.246Z,64.82
2023-03-05T14:34:58.566Z,64.84
2023-03-05T14:37:36.116Z,65.99
2023-03-05T14:40:09.949Z,65.75
2023-03-05T14:43:00.701Z,65.10
2023-03-05T14:45:37.393Z,65.48
2023-03-05T14:48:06.583Z,71.01
2023-03-05T14:50:37.114Z,69.83
2023-03-05T14:53:09.363Z,66.87
2023-03-05T14:55:38.375Z,65.16
2023-03-05T14:58:15.410Z,65.32
2023-03-05T15:00:43.676Z,65.34
2023-03-05T15:03:12.136Z,64.88
2023-03-05T15:05:39.466Z,65.45
2023-03-05T15:08:06.413Z,65.61
2023-03-05T15:10:33.516Z,65.12
2023-03-05T15:13:00.342Z,65.32
2023-03-05T15:15:27.493Z,66.52
2023-03-05T15:17:57.532Z,64.43
2023-03-05T15:20:27.328Z,64.32
2023-03-05T15:22:54.657Z,65.31
2023-03-05T15:25:25.624Z,65.17
2023-03-05T15:27:53.040Z,65.05
2023-03-05T15:30:33.346Z,65.72
2023-03-05T15:33:06.682Z,65.21
2023-03-05T15:35:33.786Z,65.37
2023-03-05T15:38:00.765Z,65.38
2023-03-05T15:40:28.869Z,65.23
2023-03-05T15:42:57.521Z,65.58
2023-03-05T15:45:25.207Z,66.34
2023-03-05T15:47:53.536Z,66.51
2023-03-05T15:50:22.211Z,66.49
2023-03-05T15:52:49.619Z,66.48
2023-03-05T15:55:18.337Z,65.72
2023-03-05T15:57:47.877Z,66.29
2023-03-05T16:00:18.240Z,66.40
2023-03-05T16:02:45.019Z,67.08
2023-03-05T16:05:12.168Z,67.29
2023-03-05T16:07:42.203Z,67.34
2023-03-05T16:10:17.557Z,67.39
2023-03-05T16:12:46.319Z,67.34
2023-03-05T16:15:19.721Z,68.00
2023-03-05T16:17:50.827Z,67.71
2023-03-05T16:20:18.237Z,67.27
2023-03-05T16:22:45.054Z,68.01
2023-03-05T16:25:12.620Z,67.83
2023-03-05T16:27:39.415Z,67.63
2023-03-05T16:30:07.153Z,68.00
2023-03-05T16:32:34.234Z,68.84
2023-03-05T16:35:01.334Z,68.95
2023-03-05T16:37:28.105Z,69.17
2023-03-05T16:39:58.957Z,68.61
2023-03-05T16:42:25.944Z,67.71
2023-03-05T16:44:53.189Z,67.19
2023-03-05T16:47:20.056Z,66.22
2023-03-05T16:49:47.061Z,65.54
2023-03-05T16:52:19.061Z,65.23
2023-03-05T16:54:47.055Z,64.87
2023-03-05T16:57:14.359Z,64.29
2023-03-05T16:59:42.117Z,64.09
2023-03-05T17:02:09.471Z,63.39
2023-03-05T17:04:37.131Z,63.51
2023-03-05T17:07:05.492Z,63.59
2023-03-05T17:09:32.772Z,63.06
2023-03-05T17:11:59.688Z,63.31
2023-03-05T17:14:26.999Z,63.08
2023-03-05T17:16:53.982Z,63.01
2023-03-05T17:19:21.116Z,62.77
2023-03-05T17:21:51.101Z,62.59
2023-03-05T17:24:21.494Z,62.68
2023-03-05T17:26:50.043Z,62.29
2023-03-05T17:29:18.975Z,62.29
2023-03-05T17:31:46.769Z,62.12
2023-03-05T17:34:14.659Z,61.68
2023-03-05T17:36:41.614Z,61.55
2023-03-05T17:39:08.904Z,62.07
2023-03-05T17:41:35.850Z,61.63
2023-03-05T17:44:03.424Z,61.79
2023-03-05T17:46:30.234Z,62.06
2023-03-05T17:48:57.281Z,62.80
2023-03-05T17:51:24.084Z,63.07
2023-03-05T17:53:51.174Z,63.38
2023-03-05T17:56:21.956Z,63.57
2023-03-05T17:58:49.933Z,64.38
2023-03-05T18:01:24.861Z,64.35
2023-03-05T18:03:52.063Z,64.47
2023-03-05T18:06:19.048Z,64.68
2023-03-05T18:08:46.138Z,64.81
2023-03-05T18:11:13.165Z,64.97
2023-03-05T18:13:40.629Z,65.06
2023-03-05T18:16:07.445Z,64.96
2023-03-05T18:18:34.896Z,64.82
2023-03-05T18:21:01.672Z,65.30
2023-03-05T18:23:28.787Z,65.22
2023-03-05T18:25:55.540Z,65.41
2023-03-05T18:28:22.742Z,65.65
2023-03-05T18:30:49.886Z,65.31
2023-03-05T18:33:22.808Z,65.38
2023-03-05T18:35:52.424Z,65.13
2023-03-05T18:38:22.080Z,65.28
2023-03-05T18:40:51.386Z,65.75
2023-03-05T18:43:20.653Z,65.02
2023-03-05T18:45:52.972Z,64.80
2023-03-05T18:48:21.078Z,64.76
2023-03-05T18:50:54.282Z,65.02
2023-03-05T18:53:22.134Z,65.43
2023-03-05T18:55:51.357Z,64.89
2023-03-05T18:58:19.120Z,65.21
2023-03-05T19:00:47.158Z,65.41
2023-03-05T19:03:16.107Z,65.49
2023-03-05T19:05:43.542Z,65.23
2023-03-05T19:08:10.758Z,65.27
2023-03-05T19:10:37.771Z,65.28
2023-03-05T19:13:40.023Z,65.55
2023-03-05T19:16:30.203Z,65.64
2023-03-05T19:19:25.408Z,65.78
2023-03-05T19:21:54.912Z,65.61
2023-03-05T19:24:23.901Z,65.46
2023-03-05T19:26:55.251Z,64.96
2023-03-05T19:29:24.014Z,65.24
2023-03-05T19:31:52.034Z,65.53
2023-03-05T19:34:20.693Z,65.60
2023-03-05T19:36:48.012Z,65.29
2023-03-05T19:39:15.582Z,65.12
2023-03-05T19:41:42.674Z,65.30
2023-03-05T19:44:09.772Z,64.97
2023-03-05T19:46:36.750Z,65.08
2023-03-05T19:49:04.525Z,65.26
2023-03-05T19:51:31.280Z,64.69
2023-03-05T19:53:58.393Z,65.05
2023-03-05T19:56:25.745Z,65.18
2023-03-05T19:58:52.823Z,64.81
2023-03-05T20:01:27.818Z,65.07
2023-03-05T20:03:58.070Z,67.84
2023-03-05T20:06:26.394Z,68.42
2023-03-05T20:08:53.911Z,65.40
2023-03-05T20:11:22.240Z,64.84
2023-03-05T20:13:49.908Z,65.04
2023-03-05T20:16:25.562Z,64.90
2023-03-05T20:18:54.957Z,65.45
2023-03-05T20:21:34.614Z,64.84
2023-03-05T20:24:04.495Z,65.26
2023-03-05T20:26:34.262Z,65.52
2023-03-05T20:29:02.546Z,65.69
2023-03-05T20:31:29.382Z,65.26
2023-03-05T20:33:56.620Z,65.23
2023-03-05T20:36:24.168Z,65.00
2023-03-05T20:38:51.275Z,64.69
2023-03-05T20:41:20.852Z,64.57
2023-03-05T20:43:50.050Z,64.76
2023-03-05T20:46:20.244Z,64.45
2023-03-05T20:48:49.793Z,64.51
2023-03-05T20:51:22.636Z,65.00
2023-03-05T20:53:51.476Z,64.97
2023-03-05T20:56:18.255Z,65.10
2023-03-05T20:58:45.520Z,64.67
2023-03-05T21:01:12.461Z,64.73
2023-03-05T21:03:40.358Z,64.80
2023-03-05T21:06:07.885Z,64.72
2023-03-05T21:08:34.964Z,64.59
2023-03-05T21:11:08.061Z,64.71
2023-03-05T21:13:35.355Z,64.47
2023-03-05T21:16:09.467Z,64.59
2023-03-05T21:18:36.868Z,64.49
2023-03-05T21:21:03.750Z,64.97
2023-03-05T21:23:31.032Z,64.68
2023-03-05T21:25:57.883Z,64.91
2023-03-05T21:28:24.945Z,64.96
2023-03-05T21:30:54.025Z,64.90
2023-03-05T21:33:23.855Z,64.55
2023-03-05T21:35:56.485Z,64.96
2023-03-05T21:38:25.591Z,65.09
2023-03-05T21:40:53.925Z,65.57
2023-03-05T21:43:23.600Z,65.25
2023-03-05T21:45:53.590Z,65.31
2023-03-05T21:48:21.956Z,65.68
2023-03-05T21:50:49.381Z,65.93
2023-03-05T21:53:17.870Z,65.64
2023-03-05T21:56:31.088Z,65.87
2023-03-05T21:58:58.234Z,65.98
2023-03-05T22:01:25.026Z,66.05
2023-03-05T22:03:52.261Z,66.38
2023-03-05T22:06:20.121Z,67.18
2023-03-05T22:08:47.666Z,66.88
2023-03-05T22:11:17.286Z,67.66
2023-03-05T22:13:44.522Z,67.74
2023-03-05T22:16:11.681Z,68.16
2023-03-05T22:18:38.896Z,68.39
2023-03-05T22:21:05.914Z,68.65
2023-03-05T22:23:36.897Z,69.03
2023-03-05T22:26:06.219Z,69.15
2023-03-05T22:28:34.504Z,68.98
2023-03-05T22:31:01.671Z,69.11
2023-03-05T22:33:29.112Z,68.71
2023-03-05T22:35:56.363Z,68.33
2023-03-05T22:38:25.367Z,68.16
2023-03-05T22:40:52.482Z,68.56
2023-03-05T22:43:20.582Z,68.69
2023-03-05T22:45:47.615Z,68.31
2023-03-05T22:48:15.102Z,68.31
2023-03-05T22:50:43.962Z,68.42
2023-03-05T22:53:12.116Z,68.67
2023-03-05T22:55:42.595Z,67.79
2023-03-05T22:58:10.003Z,67.78
2023-03-05T23:00:36.893Z,68.26
2023-03-05T23:03:05.090Z,67.10
2023-03-05T23:05:31.917Z,67.14
2023-03-05T23:07:58.960Z,67.54
2023-03-05T23:10:28.674Z,68.26
2023-03-05T23:12:57.980Z,68.44
2023-03-05T23:15:30.663Z,68.26
2023-03-05T23:17:58.520Z,67.81
2023-03-05T23:20:29.593Z,68.30
2023-03-05T23:22:57.103Z,69.00
2023-03-05T23:25:26.672Z,69.23
2023-03-05T23:27:53.941Z,68.87
2023-03-05T23:30:25.776Z,68.88
2023-03-05T23:32:57.327Z,69.00
2023-03-05T23:35:32.959Z,68.63
2023-03-05T23:38:02.073Z,68.21
2023-03-05T23:40:32.221Z,67.59
2023-03-05T23:43:00.017Z,67.34
2023-03-05T23:45:28.034Z,67.05
2023-03-05T23:47:55.441Z,66.76
2023-03-05T23:50:26.133Z,66.98
2023-03-05T23:52:56.304Z,66.50
2023-03-05T23:55:25.857Z,66.35
2023-03-05T23:57:53.688Z,66.23
